Latest Coastal Weather Observations for Avalon

IDV60701

Issued at 6:41 am EDT Sunday 22 January 2017 (issued every 10 minutes, with the page automatically refreshed every 10 minutes)

About coastal observations | Map of coastal stations | Coastal observations for VIC | Marine services | Other Formats
Station Details ID: 087113 Name: AVALON AIRPORT Lat: -38.03 Lon: 144.48 Height: 10.6 m
Data from the previous 72 hours. | See also: Recent months at Avalon
Date/Time
EDT
Temp
°C
Wind Pressure Rain since
9am
mm
Weather Cloud Vis
km
Sea
Height
m
Swell
Dir  Spd
kts
Gust
kts
hPa Trend Height
m
Period
s
Dir
22/06:30am 11.8 W 4 5 1016.2 - 0.0 - - 10 - - - -
22/06:00am 11.6 NNW 5 5 1016.1 - 0.0 - Partly cloudy 10 - - - -
22/05:30am 12.2 WNW 5 6 1016.0 - 0.0 - Partly cloudy 10 - - - -
22/05:00am 11.9 WNW 5 6 1015.8 - 0.0 - Partly cloudy 10 - - - -
22/04:30am 12.0 NW 4 4 1015.5 - 0.0 - - 10 - - - -
22/04:00am 12.1 NW 4 5 1015.4 - 0.0 - - 10 - - - -
22/03:30am 12.0 CALM 0 0 1015.6 - 0.0 - - 10 - - - -
22/03:00am 11.8 CALM 0 0 1015.7 - 0.0 - - 10 - - - -
22/02:30am 12.5 CALM 0 0 1015.9 - 0.0 - - 10 - - - -
22/02:00am 13.7 CALM 0 0 1016.2 - 0.0 - - 10 - - - -
22/01:30am 13.7 CALM 0 0 1016.4 - 0.0 - - 10 - - - -
22/01:00am 14.2 S 4 5 1016.5 - 0.0 - - 10 - - - -
22/12:30am 14.6 SSE 4 5 1016.7 - 0.0 - - 10 - - - -
22/12:00am 14.4 S 5 6 1016.6 - 0.0 - - 10 - - - -
 
Date/Time
EDT
Temp
°C
Wind Pressure Rain since
9am
mm
Weather Cloud Vis
km
Sea
Height
m
Swell
Dir  Spd
kts
Gust
kts
hPa Trend Height
m
Period
s
Dir
21/11:30pm 14.6 SSE 7 8 1016.8 - 0.0 - - 10 - - - -
21/11:00pm 14.9 SSE 7 8 1016.9 - 0.0 - - 10 - - - -
21/10:30pm 15.5 S 8 9 1017.0 - 0.0 - - 10 - - - -
21/10:00pm 15.7 S 7 9 1017.0 - 0.0 - - 10 - - - -
21/09:30pm 15.6 SSE 7 8 1016.7 - 0.0 - - 10 - - - -
21/09:00pm 16.1 SSE 7 7 1016.5 - 0.0 - - 10 - - - -
21/08:30pm 17.5 SSE 9 11 1016.4 - 0.0 - - 10 - - - -
21/08:00pm 18.7 SSE 11 14 1016.1 - 0.0 - - 10 - - - -
21/07:30pm 19.4 SSE 11 14 1015.8 - 0.0 - - 10 - - - -
21/07:00pm 19.7 S 11 15 1015.6 - 0.0 - - 10 - - - -
21/06:30pm 20.7 S 13 17 1015.3 - 0.0 - - 10 - - - -
21/06:00pm 20.7 SSE 11 15 1015.3 - 0.0 - Mostly clear 10 - - - -
21/05:30pm 21.6 SE 9 13 1015.2 - 0.0 - Partly cloudy 10 - - - -
21/05:00pm 21.6 ESE 10 14 1015.2 - 0.0 - Partly cloudy 10 - - - -
21/04:30pm 21.1 SE 11 15 1015.5 - 0.0 - Partly cloudy 10 - - - -
21/04:00pm 21.9 SE 11 15 1015.4 - 0.0 - Partly cloudy 10 - - - -
21/03:30pm 22.1 SSE 10 16 1015.5 - 0.0 - Partly cloudy 10 - - - -
21/03:00pm 21.6 SSE 10 13 1015.4 - 0.0 - Mostly clear 10 - - - -
21/02:30pm 22.6 SE 11 18 1015.4 - 0.0 - - 10 - - - -
21/02:00pm 21.7 SE 12 16 1015.4 - 0.0 - - 10 - - - -
21/01:30pm 21.7 S 9 15 1015.6 - 0.0 - - 10 - - - -
21/01:00pm 21.2 SSE 11 15 1015.9 - 0.0 - - 10 - - - -
21/12:30pm 21.3 S 9 15 1016.0 - 0.0 - Partly cloudy 10 - - - -
21/12:00pm 20.9 S 4 9 1016.0 - 0.0 - Mostly clear 10 - - - -
21/11:30am 19.1 SW 5 8 1016.0 - 0.0 - Partly cloudy 10 - - - -
21/11:00am 19.0 SW 9 13 1015.9 - 0.0 - Cloudy 10 - - - -
21/10:30am 18.1 SW 8 11 1015.7 - 0.0 - Cloudy 10 - - - -
21/10:00am 17.9 SW 9 15 1015.6 - 0.0 - Partly cloudy 10 - - - -
21/09:30am 17.4 WSW 10 13 1015.4 - 0.0 - Partly cloudy 10 - - - -
21/09:00am 16.9 WSW 10 16 1015.3 - 0.0 - - 10 - - - -
21/08:30am 15.6 W 9 13 1014.8 - 0.0 - - 10 - - - -
21/08:00am 14.4 W 9 11 1014.3 - 0.0 - Cloudy 10 - - - -
21/07:30am 14.0 W 9 12 1013.8 - 0.0 - Cloudy 10 - - - -
21/07:00am 14.0 W 6 8 1013.4 - 0.0 - Cloudy 10 - - - -
21/06:30am 13.8 W 8 10 1012.9 - 0.0 - Partly cloudy 10 - - - -
21/06:00am 13.6 W 8 9 1012.6 - 0.0 - Partly cloudy 10 - - - -
21/05:30am 14.1 W 8 10 1012.3 - 0.0 - Cloudy 10 - - - -
21/05:00am 14.1 W 8 13 1011.9 - 0.0 - Partly cloudy 10 - - - -
21/04:30am 14.1 W 6 8 1011.5 - 0.0 - Cloudy 10 - - - -
21/04:00am 13.7 W 8 9 1011.3 - 0.0 - Partly cloudy 10 - - - -
21/03:30am 13.6 W 7 11 1011.4 - 0.0 - Cloudy 10 - - - -
21/03:00am 13.6 W 8 11 1011.2 - 0.0 - Mostly cloudy 10 - - - -
21/02:30am 14.5 W 6 8 1011.1 - 0.0 - Partly cloudy 10 - - - -
21/02:00am 15.3 SSW 11 14 1010.9 - 0.0 - Cloudy 10 - - - -
21/01:30am 15.0 S 11 15 1010.7 - 0.0 - Cloudy 10 - - - -
21/01:00am 15.4 SW 13 17 1010.5 - 0.0 - Cloudy 10 - - - -
21/12:30am 15.5 SW 11 16 1010.3 - 0.0 - Cloudy 10 - - - -
21/12:00am 15.4 SW 12 16 1010.2 - 0.0 - Cloudy 10 - - - -
 
Date/Time
EDT
Temp
°C
Wind Pressure Rain since
9am
mm
Weather Cloud Vis
km
Sea
Height
m
Swell
Dir  Spd
kts
Gust
kts
hPa Trend Height
m
Period
s
Dir
20/11:30pm 15.4 SW 14 20 1010.0 - 0.0 - Cloudy 10 - - - -
20/11:00pm 15.5 SW 11 15 1009.9 - 0.0 - Cloudy 10 - - - -
20/10:30pm 15.4 SSW 12 17 1009.8 - 0.0 - Partly cloudy 10 - - - -
20/10:00pm 15.2 SW 13 18 1009.6 - 0.0 - Cloudy 10 - - - -
20/09:30pm 15.1 SW 15 21 1009.3 - 0.0 - - 10 - - - -
20/09:00pm 15.4 SSW 19 25 1008.8 - 0.0 - Mostly clear 10 - - - -
20/08:30pm 15.8 SSW 20 26 1008.4 - 0.0 - Partly cloudy 10 - - - -
20/08:00pm 16.3 SSW 20 26 1008.0 - 0.0 - Partly cloudy 10 - - - -
20/07:30pm 17.0 SSW 23 29 1007.3 - 0.0 - Partly cloudy 10 - - - -
20/07:00pm 17.9 SSW 23 29 1006.6 - 0.0 - - 10 - - - -
20/06:30pm 18.5 SSW 22 29 1006.0 - 0.0 - Partly cloudy 10 - - - -
20/06:00pm 19.0 SSW 23 31 1005.3 - 0.0 - Partly cloudy 10 - - - -
20/05:30pm 19.1 SSW 24 29 1005.1 - 0.0 - Partly cloudy 10 - - - -
20/05:00pm 20.2 SSW 24 30 1004.5 - 0.0 - Partly cloudy 10 - - - -
20/04:30pm 20.7 SSW 25 31 1003.7 - 0.0 - Partly cloudy 10 - - - -
20/04:00pm 20.5 SSW 26 33 1003.1 - 0.0 - - 10 - - - -
20/03:30pm 21.8 SSW 26 33 1002.7 - 0.0 - - 10 - - - -
20/03:00pm 21.8 SSW 23 30 1002.2 - 0.0 - Mostly clear 10 - - - -
20/02:30pm 21.4 SSW 23 28 1001.7 - 0.0 - Partly cloudy 10 - - - -
20/02:20pm 20.6 SW 18 23 1001.6 - 0.0 - Partly cloudy 10 - - - -
20/02:00pm 19.9 SW 19 27 1001.7 - 0.0 - Partly cloudy 10 - - - -
20/01:40pm 20.2 WSW 21 31 1001.4 - 0.0 - Partly cloudy 10 - - - -
20/01:30pm 19.4 WSW 22 30 1001.3 - 0.0 - Partly cloudy 10 - - - -
20/01:00pm 19.5 WSW 22 29 1001.0 - 0.0 - Partly cloudy 10 - - - -
20/12:34pm 19.2 WSW 17 28 1000.8 - 0.0 - Partly cloudy 10 - - - -
20/12:30pm 18.5 WSW 18 24 1000.8 - 0.0 - Partly cloudy 10 - - - -
20/12:00pm 19.3 WSW 19 24 999.9 - 0.0 - Cloudy 10 - - - -
20/11:30am 18.8 W 18 26 999.0 - 0.0 - Partly cloudy 10 - - - -
20/11:00am 19.2 W 18 26 997.8 - 0.0 - Partly cloudy 10 - - - -
20/10:37am 19.0 W 18 25 997.0 - 0.0 - Partly cloudy 10 - - - -
20/10:30am 18.4 W 18 25 997.1 - 0.0 - Partly cloudy 10 - - - -
20/10:10am 18.6 WSW 20 27 996.7 - 0.0 - Partly cloudy 10 - - - -
20/10:02am 18.3 W 17 27 996.7 - 0.0 - Partly cloudy 10 - - - -
20/10:00am 18.5 W 17 25 996.7 - 0.0 - Partly cloudy 10 - - - -
20/09:30am 17.8 W 15 21 996.4 - 0.0 - Partly cloudy 10 - - - -
20/09:00am 16.9 W 18 24 995.9 - 25.0 Recent precip. Cloudy 10 - - - -
20/08:30am 17.2 W 17 23 995.0 - - - Partly cloudy 10 - - - -
20/08:24am 17.0 WNW 16 21 994.7 - - - Partly cloudy 10 - - - -
20/08:20am 16.8 WNW 16 21 994.6 - - - Partly cloudy 10 - - - -
20/08:00am 16.3 WNW 8 10 994.7 - - - Partly cloudy 5 - - - -
20/07:54am 16.3 WNW 7 9 994.4 - - - Partly cloudy 6 - - - -
20/07:30am 16.1 N 6 8 993.7 - - - Partly cloudy 10 - - - -
20/07:00am 15.8 N 8 13 992.8 - - - Partly cloudy 8 - - - -
20/06:30am 15.6 NNE 12 16 992.2 - - - Partly cloudy 10 - - - -
20/06:00am 15.8 NNE 14 18 992.9 - - Rain Cloudy 10 - - - -
20/05:30am 15.7 NE 13 16 993.5 - - - Partly cloudy 10 - - - -
20/05:05am 15.5 ENE 12 15 994.2 - - - Partly cloudy 8 - - - -
20/05:00am 15.5 ENE 11 14 994.8 - - - Partly cloudy 7 - - - -
20/04:51am 15.5 ENE 10 12 995.7 - - - Partly cloudy 6 - - - -
20/04:30am 15.4 CALM 0 0 997.7 - - - Partly cloudy 6 - - - -
20/04:00am 15.3 SW 6 8 999.3 - - - Partly cloudy 4 - - - -
20/03:30am 16.4 SW 6 9 1000.0 - - - Partly cloudy 6 - - - -
20/03:28am 16.4 SW 7 9 1000.0 - - - Partly cloudy 6 - - - -
20/03:08am 16.8 WSW 8 10 1000.6 - - - Partly cloudy 7 - - - -
20/03:04am 16.9 W 9 14 1000.7 - - - Partly cloudy 7 - - - -
20/03:00am 17.0 W 11 15 1001.0 - 10.0 Rain Cloudy 8 - - - -
20/02:54am 17.0 W 9 15 1001.5 - - - Partly cloudy 6 - - - -
20/02:30am 17.3 SW 10 14 1001.5 - - - Partly cloudy 4 - - - -
20/02:00am 17.3 SW 15 22 1002.7 - - - Partly cloudy 5 - - - -
20/01:42am 17.5 WSW 20 30 1002.4 - - - Partly cloudy 6 - - - -
20/01:39am 17.5 WSW 17 28 1002.0 - - - Partly cloudy 9 - - - -
20/01:30am 17.7 W 10 16 1000.4 - - - Partly cloudy 10 - - - -
20/01:26am 17.9 W 8 13 999.7 - - - Partly cloudy 10 - - - -
20/01:00am 17.0 NW 5 6 997.7 - - - Partly cloudy 10 - - - -
20/12:30am 16.8 N 2 5 998.0 - - - Partly cloudy 10 - - - -
20/12:00am 16.8 CALM 0 0 999.0 - - - Cloudy 10 - - - -
 
Date/Time
EDT
Temp
°C
Wind Pressure Rain since
9am
mm
Weather Cloud Vis
km
Sea
Height
m
Swell
Dir  Spd
kts
Gust
kts
hPa Trend Height
m
Period
s
Dir
19/11:30pm 17.3 WNW 4 5 999.6 - - - - 10 - - - -
19/11:00pm 17.2 NW 6 7 1000.5 - - - - 10 - - - -
19/10:30pm 17.0 NW 3 4 1000.9 - - - - 10 - - - -
19/10:00pm 17.9 WSW 5 6 1002.3 - - - - 10 - - - -
19/09:30pm 18.3 CALM 0 0 1002.8 - - - - 10 - - - -
19/09:00pm 18.7 SSW 5 8 1003.4 - 0.0 - Cloudy 10 - - - -
19/08:30pm 19.0 SSE 8 11 1003.7 - - - - 10 - - - -
19/08:00pm 18.9 S 10 13 1004.6 - - - - 10 - - - -
19/07:30pm 19.6 S 13 17 1005.1 - - - - 10 - - - -
19/07:00pm 20.0 S 13 17 1005.8 - - - Partly cloudy 10 - - - -
19/06:30pm 21.7 S 16 20 1006.0 - - - - 10 - - - -
19/06:00pm 21.7 S 16 19 1006.3 - - - - 10 - - - -
19/05:30pm 21.1 S 13 17 1006.8 - - - - 10 - - - -
19/05:00pm 21.4 S 12 17 1007.5 - - - - 10 - - - -
19/04:30pm 23.8 S 13 19 1007.5 - - - - 10 - - - -
19/04:00pm 23.2 SE 9 14 1008.5 - - - - 10 - - - -
19/03:30pm 23.0 ESE 9 14 1009.1 - - - - 10 - - - -
19/03:00pm 22.8 SE 9 16 1009.6 - 0.0 Fine - 10 - - - -
19/02:30pm 22.3 SE 10 14 1010.2 - - - - 10 - - - -
19/02:00pm 21.7 SE 10 15 1010.7 - - - - 10 - - - -
19/01:30pm 20.7 SSE 9 12 1011.4 - - - - 10 - - - -
19/01:00pm 20.4 SE 8 13 1011.7 - - - - 10 - - - -
19/12:30pm 20.3 SE 8 13 1012.3 - - - - - - - - -
19/12:00pm 19.8 - - - 1012.9 - - - - - - - - -
19/11:30am 18.9 ESE 8 15 1013.2 - 0.0 - - 10 - - - -
19/11:00am 18.8 ESE 8 13 1013.3 - 0.0 - - 10 - - - -
19/10:30am 18.2 SE 11 15 1013.7 - 0.0 - Partly cloudy 10 - - - -
19/10:00am 17.3 SE 9 12 1013.9 - 0.0 - Cloudy 10 - - - -
19/09:30am 17.1 SSE 9 12 1014.3 - 0.0 - Cloudy 10 - - - -
19/09:00am 16.7 SSE 9 13 1014.6 - 0.0 - Partly cloudy 10 - - - -
19/08:30am 16.6 SSE 9 12 1014.8 - 0.0 - Cloudy 10 - - - -
19/08:00am 16.1 SSE 9 11 1014.9 - 0.0 - Cloudy 10 - - - -
19/07:30am 15.4 SE 8 10 1014.9 - 0.0 - Partly cloudy 10 - - - -
19/07:00am 14.0 SSE 7 9 1014.9 - 0.0 - Partly cloudy 10 - - - -

Other Formats:

Comma delimited format used in spreadsheet applications
http://www.bom.gov.au/fwo/IDV60701/IDV60701.94854.axf

JavaScript Object Notation format (JSON) in row-major order
http://www.bom.gov.au/fwo/IDV60701/IDV60701.94854.json